North Babylon, New York
Current Conditions -  °F | °C
As of 9:53 AM on Thursday 18 Dec 2014 (Local Time) from KFRG Reporting Station
Scattered Clouds Scattered Clouds  
Wind Chill: 31°   Ceiling: Unl
Heat Index: 40°   Visibility: 10mi
Dew Point: 22°   Wind: 16mph
Humidity: 49%   Direction: 320°NW
Pressure: 29.98"   Gusts: 30mph
Location:  40.74°N, 73.32°W
Report Text: KFRG 181453Z 32014G26KT 10SM SCT040 04/M06 A2998 RMK AO2 PK WND 31029/1412 SLP152 T00441056 53016
Loading
Personal Weather Stations






























Interactive Weather Map New forecast layout! Learn more

10-Day Weather Forecast

Advertisements
Track Severe Weather on mobile